sensor_id;sensor_type;location;lat;lon;timestamp;temperature;humidity
76996;DHT22;65929;49.062;10.338;2023-02-28T00:00:02;-3.80;73.40
76996;DHT22;65929;49.062;10.338;2023-02-28T00:01:11;-3.80;73.40
76996;DHT22;65929;49.062;10.338;2023-02-28T00:02:12;-3.80;73.70
76996;DHT22;65929;49.062;10.338;2023-02-28T00:03:13;-3.80;73.80
76996;DHT22;65929;49.062;10.338;2023-02-28T00:04:15;-3.80;73.80
76996;DHT22;65929;49.062;10.338;2023-02-28T00:05:18;-3.80;73.90
76996;DHT22;65929;49.062;10.338;2023-02-28T00:06:20;-3.80;73.80
76996;DHT22;65929;49.062;10.338;2023-02-28T00:07:21;-3.80;73.90
76996;DHT22;65929;49.062;10.338;2023-02-28T00:08:22;-3.80;73.90
76996;DHT22;65929;49.062;10.338;2023-02-28T00:09:23;-3.80;74.00
76996;DHT22;65929;49.062;10.338;2023-02-28T00:10:26;-3.80;73.90
76996;DHT22;65929;49.062;10.338;2023-02-28T00:11:27;-3.80;74.10
76996;DHT22;65929;49.062;10.338;2023-02-28T00:12:28;-3.80;73.90
76996;DHT22;65929;49.062;10.338;2023-02-28T00:13:29;-3.80;74.20
76996;DHT22;65929;49.062;10.338;2023-02-28T00:14:30;-3.80;74.20
76996;DHT22;65929;49.062;10.338;2023-02-28T00:15:31;-3.80;74.20
76996;DHT22;65929;49.062;10.338;2023-02-28T00:16:33;-3.80;74.20
76996;DHT22;65929;49.062;10.338;2023-02-28T00:17:33;-3.80;74.20
76996;DHT22;65929;49.062;10.338;2023-02-28T00:18:35;-3.80;74.20
76996;DHT22;65929;49.062;10.338;2023-02-28T00:19:37;-3.80;74.30
76996;DHT22;65929;49.062;10.338;2023-02-28T00:20:38;-3.80;74.40
76996;DHT22;65929;49.062;10.338;2023-02-28T00:21:39;-3.80;74.50
76996;DHT22;65929;49.062;10.338;2023-02-28T00:22:42;-3.80;74.40
76996;DHT22;65929;49.062;10.338;2023-02-28T00:23:43;-3.80;74.40
76996;DHT22;65929;49.062;10.338;2023-02-28T00:24:44;-3.80;74.40
76996;DHT22;65929;49.062;10.338;2023-02-28T00:25:46;-3.80;74.40
76996;DHT22;65929;49.062;10.338;2023-02-28T00:26:47;-3.80;74.40
76996;DHT22;65929;49.062;10.338;2023-02-28T00:27:48;-3.80;74.50
76996;DHT22;65929;49.062;10.338;2023-02-28T00:28:51;-3.80;74.60
76996;DHT22;65929;49.062;10.338;2023-02-28T00:29:53;-3.80;74.60
76996;DHT22;65929;49.062;10.338;2023-02-28T00:30:54;-3.80;74.80
76996;DHT22;65929;49.062;10.338;2023-02-28T00:31:55;-3.80;74.60
76996;DHT22;65929;49.062;10.338;2023-02-28T00:32:56;-3.80;74.90
76996;DHT22;65929;49.062;10.338;2023-02-28T00:33:57;-3.80;74.90
76996;DHT22;65929;49.062;10.338;2023-02-28T00:35:00;-3.80;74.80
76996;DHT22;65929;49.062;10.338;2023-02-28T00:36:03;-3.80;74.90
76996;DHT22;65929;49.062;10.338;2023-02-28T00:37:05;-3.80;75.00
76996;DHT22;65929;49.062;10.338;2023-02-28T00:38:06;-3.80;75.10
76996;DHT22;65929;49.062;10.338;2023-02-28T00:39:07;-3.80;75.00
76996;DHT22;65929;49.062;10.338;2023-02-28T00:40:09;-3.80;75.00
76996;DHT22;65929;49.062;10.338;2023-02-28T00:41:12;-3.80;75.10
76996;DHT22;65929;49.062;10.338;2023-02-28T00:42:13;-3.80;75.40
76996;DHT22;65929;49.062;10.338;2023-02-28T00:43:14;-3.80;75.20
76996;DHT22;65929;49.062;10.338;2023-02-28T00:44:15;-3.80;75.40
76996;DHT22;65929;49.062;10.338;2023-02-28T00:45:16;-3.80;75.40
76996;DHT22;65929;49.062;10.338;2023-02-28T00:46:17;-3.80;75.50
76996;DHT22;65929;49.062;10.338;2023-02-28T00:47:18;-3.80;75.50
76996;DHT22;65929;49.062;10.338;2023-02-28T00:48:19;-3.80;75.50
76996;DHT22;65929;49.062;10.338;2023-02-28T00:49:20;-3.80;75.70
76996;DHT22;65929;49.062;10.338;2023-02-28T00:50:23;-3.80;75.90
76996;DHT22;65929;49.062;10.338;2023-02-28T00:51:24;-3.80;75.80
76996;DHT22;65929;49.062;10.338;2023-02-28T00:52:25;-3.80;76.00
76996;DHT22;65929;49.062;10.338;2023-02-28T00:53:26;-3.80;75.90
76996;DHT22;65929;49.062;10.338;2023-02-28T00:54:27;-3.80;75.90
76996;DHT22;65929;49.062;10.338;2023-02-28T00:55:28;-3.80;76.00
76996;DHT22;65929;49.062;10.338;2023-02-28T00:56:29;-3.80;75.90
76996;DHT22;65929;49.062;10.338;2023-02-28T00:57:30;-3.80;75.90
76996;DHT22;65929;49.062;10.338;2023-02-28T00:58:31;-3.80;76.00
76996;DHT22;65929;49.062;10.338;2023-02-28T00:59:32;-3.80;76.00
76996;DHT22;65929;49.062;10.338;2023-02-28T01:00:33;-3.80;76.10
76996;DHT22;65929;49.062;10.338;2023-02-28T01:01:34;-3.80;76.00
76996;DHT22;65929;49.062;10.338;2023-02-28T01:02:35;-3.80;76.20
76996;DHT22;65929;49.062;10.338;2023-02-28T01:03:36;-3.80;76.20
76996;DHT22;65929;49.062;10.338;2023-02-28T01:04:37;-3.80;76.20
76996;DHT22;65929;49.062;10.338;2023-02-28T01:05:39;-3.80;76.30
76996;DHT22;65929;49.062;10.338;2023-02-28T01:06:41;-3.80;76.20
76996;DHT22;65929;49.062;10.338;2023-02-28T01:07:42;-3.80;76.50
76996;DHT22;65929;49.062;10.338;2023-02-28T01:08:43;-3.80;76.50
76996;DHT22;65929;49.062;10.338;2023-02-28T01:09:44;-3.80;76.50
76996;DHT22;65929;49.062;10.338;2023-02-28T01:10:45;-3.90;76.50
76996;DHT22;65929;49.062;10.338;2023-02-28T01:11:46;-3.90;76.50
76996;DHT22;65929;49.062;10.338;2023-02-28T01:12:47;-3.90;76.60
76996;DHT22;65929;49.062;10.338;2023-02-28T01:13:48;-3.90;76.60
76996;DHT22;65929;49.062;10.338;2023-02-28T01:14:49;-3.90;76.80
76996;DHT22;65929;49.062;10.338;2023-02-28T01:15:51;-4.00;76.80
76996;DHT22;65929;49.062;10.338;2023-02-28T01:16:53;-4.00;76.90
76996;DHT22;65929;49.062;10.338;2023-02-28T01:17:54;-4.00;77.00
76996;DHT22;65929;49.062;10.338;2023-02-28T01:18:55;-3.90;77.00
76996;DHT22;65929;49.062;10.338;2023-02-28T01:19:56;-4.00;77.00
76996;DHT22;65929;49.062;10.338;2023-02-28T01:21:03;-4.00;77.10
76996;DHT22;65929;49.062;10.338;2023-02-28T01:22:05;-4.00;77.30
76996;DHT22;65929;49.062;10.338;2023-02-28T01:23:06;-4.00;77.10
76996;DHT22;65929;49.062;10.338;2023-02-28T01:24:07;-4.00;77.20
76996;DHT22;65929;49.062;10.338;2023-02-28T01:25:08;-4.00;77.20
76996;DHT22;65929;49.062;10.338;2023-02-28T01:26:12;-4.00;77.20
76996;DHT22;65929;49.062;10.338;2023-02-28T01:27:13;-4.00;77.10
76996;DHT22;65929;49.062;10.338;2023-02-28T01:28:14;-4.00;77.20
76996;DHT22;65929;49.062;10.338;2023-02-28T01:29:15;-4.00;77.30
76996;DHT22;65929;49.062;10.338;2023-02-28T01:30:16;-4.00;77.20
76996;DHT22;65929;49.062;10.338;2023-02-28T01:31:18;-3.90;77.20
76996;DHT22;65929;49.062;10.338;2023-02-28T01:32:19;-3.90;77.10
76996;DHT22;65929;49.062;10.338;2023-02-28T01:33:20;-3.80;77.20
76996;DHT22;65929;49.062;10.338;2023-02-28T01:34:21;-3.90;77.20
76996;DHT22;65929;49.062;10.338;2023-02-28T01:35:22;-3.80;77.10
76996;DHT22;65929;49.062;10.338;2023-02-28T01:36:25;-3.80;77.00
76996;DHT22;65929;49.062;10.338;2023-02-28T01:37:26;-3.90;77.30
76996;DHT22;65929;49.062;10.338;2023-02-28T01:38:27;-3.90;77.30
76996;DHT22;65929;49.062;10.338;2023-02-28T01:39:28;-4.00;77.50
76996;DHT22;65929;49.062;10.338;2023-02-28T01:40:29;-3.90;77.50
76996;DHT22;65929;49.062;10.338;2023-02-28T01:41:31;-3.90;77.40
76996;DHT22;65929;49.062;10.338;2023-02-28T01:42:33;-3.90;77.50
76996;DHT22;65929;49.062;10.338;2023-02-28T01:43:53;-3.90;77.50
76996;DHT22;65929;49.062;10.338;2023-02-28T01:45:03;-3.90;77.70
76996;DHT22;65929;49.062;10.338;2023-02-28T01:46:04;-3.80;77.50
76996;DHT22;65929;49.062;10.338;2023-02-28T01:47:05;-3.80;77.50
76996;DHT22;65929;49.062;10.338;2023-02-28T01:48:08;-3.80;77.50
76996;DHT22;65929;49.062;10.338;2023-02-28T01:49:14;-3.80;77.50
76996;DHT22;65929;49.062;10.338;2023-02-28T01:50:19;-3.80;77.40
76996;DHT22;65929;49.062;10.338;2023-02-28T01:51:25;-3.80;77.50
76996;DHT22;65929;49.062;10.338;2023-02-28T01:52:27;-3.80;77.30
76996;DHT22;65929;49.062;10.338;2023-02-28T01:53:32;-3.80;77.50
76996;DHT22;65929;49.062;10.338;2023-02-28T01:54:34;-3.80;77.50
76996;DHT22;65929;49.062;10.338;2023-02-28T01:55:36;-3.90;77.60
76996;DHT22;65929;49.062;10.338;2023-02-28T01:56:37;-3.90;77.60
76996;DHT22;65929;49.062;10.338;2023-02-28T01:57:42;-3.90;77.50
76996;DHT22;65929;49.062;10.338;2023-02-28T01:58:46;-3.90;77.90
76996;DHT22;65929;49.062;10.338;2023-02-28T01:59:50;-4.00;77.80
76996;DHT22;65929;49.062;10.338;2023-02-28T02:00:53;-4.00;78.00
76996;DHT22;65929;49.062;10.338;2023-02-28T02:01:55;-3.90;78.00
76996;DHT22;65929;49.062;10.338;2023-02-28T02:02:57;-3.90;78.10
76996;DHT22;65929;49.062;10.338;2023-02-28T02:04:01;-3.90;78.10
76996;DHT22;65929;49.062;10.338;2023-02-28T02:05:04;-3.90;78.10
76996;DHT22;65929;49.062;10.338;2023-02-28T02:06:06;-3.90;78.20
76996;DHT22;65929;49.062;10.338;2023-02-28T02:07:09;-3.90;78.10
76996;DHT22;65929;49.062;10.338;2023-02-28T02:08:12;-3.90;78.20
76996;DHT22;65929;49.062;10.338;2023-02-28T02:09:14;-3.90;78.30
76996;DHT22;65929;49.062;10.338;2023-02-28T02:10:16;-3.90;78.40
76996;DHT22;65929;49.062;10.338;2023-02-28T02:11:19;-3.90;78.30
76996;DHT22;65929;49.062;10.338;2023-02-28T02:12:29;-3.90;78.20
76996;DHT22;65929;49.062;10.338;2023-02-28T02:14:04;-3.90;78.40
76996;DHT22;65929;49.062;10.338;2023-02-28T02:15:09;-3.90;78.30
76996;DHT22;65929;49.062;10.338;2023-02-28T02:16:26;-4.00;78.30
76996;DHT22;65929;49.062;10.338;2023-02-28T02:17:35;-4.00;78.50
76996;DHT22;65929;49.062;10.338;2023-02-28T02:18:44;-4.00;78.70
76996;DHT22;65929;49.062;10.338;2023-02-28T02:22:00;-4.00;78.90
76996;DHT22;65929;49.062;10.338;2023-02-28T02:23:26;-4.00;79.00
76996;DHT22;65929;49.062;10.338;2023-02-28T02:25:04;-4.00;79.00
76996;DHT22;65929;49.062;10.338;2023-02-28T02:26:27;-4.00;79.00
76996;DHT22;65929;49.062;10.338;2023-02-28T02:27:44;-4.00;79.20
76996;DHT22;65929;49.062;10.338;2023-02-28T02:29:08;-4.00;79.10
76996;DHT22;65929;49.062;10.338;2023-02-28T02:31:55;-4.00;79.10
76996;DHT22;65929;49.062;10.338;2023-02-28T02:34:49;-4.00;79.40
76996;DHT22;65929;49.062;10.338;2023-02-28T02:35:54;-4.00;79.40
76996;DHT22;65929;49.062;10.338;2023-02-28T02:37:03;-4.00;79.50
76996;DHT22;65929;49.062;10.338;2023-02-28T02:38:12;-4.00;79.60
76996;DHT22;65929;49.062;10.338;2023-02-28T02:39:17;-4.00;79.60
76996;DHT22;65929;49.062;10.338;2023-02-28T02:40:22;-4.00;79.70
76996;DHT22;65929;49.062;10.338;2023-02-28T02:41:28;-4.00;79.60
76996;DHT22;65929;49.062;10.338;2023-02-28T02:42:52;-4.00;79.70
76996;DHT22;65929;49.062;10.338;2023-02-28T02:43:58;-4.10;79.90
76996;DHT22;65929;49.062;10.338;2023-02-28T02:45:06;-4.10;79.80
76996;DHT22;65929;49.062;10.338;2023-02-28T02:46:11;-4.10;79.80
76996;DHT22;65929;49.062;10.338;2023-02-28T02:47:15;-4.10;80.00
76996;DHT22;65929;49.062;10.338;2023-02-28T02:48:20;-4.10;80.20
76996;DHT22;65929;49.062;10.338;2023-02-28T02:49:25;-4.20;80.30
76996;DHT22;65929;49.062;10.338;2023-02-28T02:50:34;-4.10;80.40
76996;DHT22;65929;49.062;10.338;2023-02-28T02:51:41;-4.10;80.40
76996;DHT22;65929;49.062;10.338;2023-02-28T02:52:46;-4.10;80.40
76996;DHT22;65929;49.062;10.338;2023-02-28T02:53:52;-4.10;80.50
76996;DHT22;65929;49.062;10.338;2023-02-28T02:54:55;-4.20;80.40
76996;DHT22;65929;49.062;10.338;2023-02-28T02:55:59;-4.20;80.50
76996;DHT22;65929;49.062;10.338;2023-02-28T02:57:06;-4.10;80.50
76996;DHT22;65929;49.062;10.338;2023-02-28T02:58:14;-4.20;80.50
76996;DHT22;65929;49.062;10.338;2023-02-28T02:59:17;-4.20;80.70
76996;DHT22;65929;49.062;10.338;2023-02-28T03:00:25;-4.20;80.60
76996;DHT22;65929;49.062;10.338;2023-02-28T03:01:29;-4.20;80.70
76996;DHT22;65929;49.062;10.338;2023-02-28T03:02:32;-4.20;80.70
76996;DHT22;65929;49.062;10.338;2023-02-28T03:03:34;-4.20;80.80
76996;DHT22;65929;49.062;10.338;2023-02-28T03:04:45;-4.20;80.80
76996;DHT22;65929;49.062;10.338;2023-02-28T03:05:49;-4.20;80.80
76996;DHT22;65929;49.062;10.338;2023-02-28T03:06:51;-4.20;80.80
76996;DHT22;65929;49.062;10.338;2023-02-28T03:07:55;-4.20;80.90
76996;DHT22;65929;49.062;10.338;2023-02-28T03:08:56;-4.20;80.90
76996;DHT22;65929;49.062;10.338;2023-02-28T03:09:57;-4.20;80.90
76996;DHT22;65929;49.062;10.338;2023-02-28T03:11:01;-4.20;80.80
76996;DHT22;65929;49.062;10.338;2023-02-28T03:12:03;-4.20;80.90
76996;DHT22;65929;49.062;10.338;2023-02-28T03:13:34;-4.20;81.20
76996;DHT22;65929;49.062;10.338;2023-02-28T03:14:44;-4.20;81.00
76996;DHT22;65929;49.062;10.338;2023-02-28T03:15:58;-4.20;81.00
76996;DHT22;65929;49.062;10.338;2023-02-28T03:18:35;-4.20;80.90
76996;DHT22;65929;49.062;10.338;2023-02-28T03:19:49;-4.20;80.90
76996;DHT22;65929;49.062;10.338;2023-02-28T03:21:01;-4.20;80.90
76996;DHT22;65929;49.062;10.338;2023-02-28T03:22:16;-4.20;80.80
76996;DHT22;65929;49.062;10.338;2023-02-28T03:23:23;-4.20;81.00
76996;DHT22;65929;49.062;10.338;2023-02-28T03:24:31;-4.30;81.10
76996;DHT22;65929;49.062;10.338;2023-02-28T03:25:38;-4.20;81.10
76996;DHT22;65929;49.062;10.338;2023-02-28T03:26:43;-4.20;81.20
76996;DHT22;65929;49.062;10.338;2023-02-28T03:27:52;-4.30;81.20
76996;DHT22;65929;49.062;10.338;2023-02-28T03:29:01;-4.30;81.30
76996;DHT22;65929;49.062;10.338;2023-02-28T03:30:06;-4.30;81.30
76996;DHT22;65929;49.062;10.338;2023-02-28T03:31:15;-4.30;81.40
76996;DHT22;65929;49.062;10.338;2023-02-28T03:32:21;-4.20;81.50
76996;DHT22;65929;49.062;10.338;2023-02-28T03:33:28;-4.30;81.30
76996;DHT22;65929;49.062;10.338;2023-02-28T03:34:34;-4.20;81.40
76996;DHT22;65929;49.062;10.338;2023-02-28T03:35:39;-4.20;81.20
76996;DHT22;65929;49.062;10.338;2023-02-28T03:36:46;-4.20;81.10
76996;DHT22;65929;49.062;10.338;2023-02-28T03:37:52;-4.30;81.20
76996;DHT22;65929;49.062;10.338;2023-02-28T03:38:58;-4.30;81.40
76996;DHT22;65929;49.062;10.338;2023-02-28T03:40:06;-4.30;81.40
76996;DHT22;65929;49.062;10.338;2023-02-28T03:41:13;-4.30;81.40
76996;DHT22;65929;49.062;10.338;2023-02-28T03:42:17;-4.30;81.30
76996;DHT22;65929;49.062;10.338;2023-02-28T03:43:26;-4.30;81.40
76996;DHT22;65929;49.062;10.338;2023-02-28T03:44:30;-4.20;81.40
76996;DHT22;65929;49.062;10.338;2023-02-28T03:45:36;-4.20;81.30
76996;DHT22;65929;49.062;10.338;2023-02-28T03:46:42;-4.20;81.20
76996;DHT22;65929;49.062;10.338;2023-02-28T03:47:49;-4.20;81.20
76996;DHT22;65929;49.062;10.338;2023-02-28T03:48:57;-4.20;81.30
76996;DHT22;65929;49.062;10.338;2023-02-28T03:50:05;-4.20;81.20
76996;DHT22;65929;49.062;10.338;2023-02-28T03:51:09;-4.20;81.20
76996;DHT22;65929;49.062;10.338;2023-02-28T03:52:14;-4.10;81.10
76996;DHT22;65929;49.062;10.338;2023-02-28T03:53:20;-4.20;81.10
76996;DHT22;65929;49.062;10.338;2023-02-28T03:54:26;-4.10;81.00
76996;DHT22;65929;49.062;10.338;2023-02-28T03:55:34;-4.10;81.00
76996;DHT22;65929;49.062;10.338;2023-02-28T03:56:42;-4.10;81.00
76996;DHT22;65929;49.062;10.338;2023-02-28T03:57:51;-4.10;81.00
76996;DHT22;65929;49.062;10.338;2023-02-28T03:58:57;-4.10;80.90
76996;DHT22;65929;49.062;10.338;2023-02-28T04:00:02;-4.10;80.90
76996;DHT22;65929;49.062;10.338;2023-02-28T04:01:09;-4.10;80.90
76996;DHT22;65929;49.062;10.338;2023-02-28T04:02:11;-4.10;81.00
76996;DHT22;65929;49.062;10.338;2023-02-28T04:03:13;-4.10;80.90
76996;DHT22;65929;49.062;10.338;2023-02-28T04:04:16;-4.10;80.70
76996;DHT22;65929;49.062;10.338;2023-02-28T04:05:17;-4.10;80.80
76996;DHT22;65929;49.062;10.338;2023-02-28T04:06:20;-4.10;80.70
76996;DHT22;65929;49.062;10.338;2023-02-28T04:07:23;-4.10;80.70
76996;DHT22;65929;49.062;10.338;2023-02-28T04:08:24;-4.10;80.70
76996;DHT22;65929;49.062;10.338;2023-02-28T04:09:25;-4.10;80.60
76996;DHT22;65929;49.062;10.338;2023-02-28T04:10:25;-4.10;80.70
76996;DHT22;65929;49.062;10.338;2023-02-28T04:11:31;-4.10;80.70
76996;DHT22;65929;49.062;10.338;2023-02-28T04:12:33;-4.10;80.60
76996;DHT22;65929;49.062;10.338;2023-02-28T04:13:34;-4.10;80.70
76996;DHT22;65929;49.062;10.338;2023-02-28T04:14:35;-4.10;80.80
76996;DHT22;65929;49.062;10.338;2023-02-28T04:15:35;-4.10;80.90
76996;DHT22;65929;49.062;10.338;2023-02-28T04:16:40;-4.10;80.90
76996;DHT22;65929;49.062;10.338;2023-02-28T04:17:41;-4.20;80.90
76996;DHT22;65929;49.062;10.338;2023-02-28T04:18:43;-4.20;81.10
76996;DHT22;65929;49.062;10.338;2023-02-28T04:19:43;-4.20;81.10
76996;DHT22;65929;49.062;10.338;2023-02-28T04:20:44;-4.20;81.10
76996;DHT22;65929;49.062;10.338;2023-02-28T04:21:47;-4.20;81.20
76996;DHT22;65929;49.062;10.338;2023-02-28T04:22:50;-4.20;81.30
76996;DHT22;65929;49.062;10.338;2023-02-28T04:23:51;-4.20;81.40
76996;DHT22;65929;49.062;10.338;2023-02-28T04:24:52;-4.20;81.60
76996;DHT22;65929;49.062;10.338;2023-02-28T04:25:55;-4.20;81.50
76996;DHT22;65929;49.062;10.338;2023-02-28T04:26:57;-4.20;81.50
76996;DHT22;65929;49.062;10.338;2023-02-28T04:27:58;-4.20;81.60
76996;DHT22;65929;49.062;10.338;2023-02-28T04:29:00;-4.20;81.60
76996;DHT22;65929;49.062;10.338;2023-02-28T04:30:01;-4.20;81.60
76996;DHT22;65929;49.062;10.338;2023-02-28T04:31:03;-4.20;81.70
76996;DHT22;65929;49.062;10.338;2023-02-28T04:32:05;-4.30;81.80
76996;DHT22;65929;49.062;10.338;2023-02-28T04:33:06;-4.30;81.80
76996;DHT22;65929;49.062;10.338;2023-02-28T04:34:07;-4.30;81.90
76996;DHT22;65929;49.062;10.338;2023-02-28T04:35:08;-4.30;81.90
76996;DHT22;65929;49.062;10.338;2023-02-28T04:36:09;-4.30;81.80
76996;DHT22;65929;49.062;10.338;2023-02-28T04:37:10;-4.30;81.70
76996;DHT22;65929;49.062;10.338;2023-02-28T04:38:12;-4.30;81.70
76996;DHT22;65929;49.062;10.338;2023-02-28T04:39:13;-4.30;81.90
76996;DHT22;65929;49.062;10.338;2023-02-28T04:40:15;-4.30;81.90
76996;DHT22;65929;49.062;10.338;2023-02-28T04:41:16;-4.30;82.00
76996;DHT22;65929;49.062;10.338;2023-02-28T04:42:17;-4.30;81.90
76996;DHT22;65929;49.062;10.338;2023-02-28T04:43:18;-4.30;81.90
76996;DHT22;65929;49.062;10.338;2023-02-28T04:44:19;-4.30;82.00
76996;DHT22;65929;49.062;10.338;2023-02-28T04:45:21;-4.30;82.10
76996;DHT22;65929;49.062;10.338;2023-02-28T04:46:22;-4.30;82.00
76996;DHT22;65929;49.062;10.338;2023-02-28T04:47:23;-4.30;82.00
76996;DHT22;65929;49.062;10.338;2023-02-28T04:48:25;-4.30;82.10
76996;DHT22;65929;49.062;10.338;2023-02-28T04:49:26;-4.30;82.00
76996;DHT22;65929;49.062;10.338;2023-02-28T04:50:27;-4.30;82.00
76996;DHT22;65929;49.062;10.338;2023-02-28T04:51:28;-4.30;82.10
76996;DHT22;65929;49.062;10.338;2023-02-28T04:52:29;-4.30;82.00
76996;DHT22;65929;49.062;10.338;2023-02-28T04:53:31;-4.30;82.00
76996;DHT22;65929;49.062;10.338;2023-02-28T04:54:32;-4.30;82.00
76996;DHT22;65929;49.062;10.338;2023-02-28T04:55:33;-4.30;82.10
76996;DHT22;65929;49.062;10.338;2023-02-28T04:56:34;-4.30;82.00
76996;DHT22;65929;49.062;10.338;2023-02-28T04:57:36;-4.30;82.10
76996;DHT22;65929;49.062;10.338;2023-02-28T04:58:37;-4.30;82.20
76996;DHT22;65929;49.062;10.338;2023-02-28T04:59:38;-4.30;82.20
76996;DHT22;65929;49.062;10.338;2023-02-28T05:00:39;-4.30;82.30
76996;DHT22;65929;49.062;10.338;2023-02-28T05:01:40;-4.30;82.30
76996;DHT22;65929;49.062;10.338;2023-02-28T05:02:45;-4.30;82.30
76996;DHT22;65929;49.062;10.338;2023-02-28T05:03:46;-4.30;82.20
76996;DHT22;65929;49.062;10.338;2023-02-28T05:04:47;-4.40;82.30
76996;DHT22;65929;49.062;10.338;2023-02-28T05:05:48;-4.40;82.20
76996;DHT22;65929;49.062;10.338;2023-02-28T05:06:49;-4.40;82.40
76996;DHT22;65929;49.062;10.338;2023-02-28T05:07:50;-4.40;82.50
76996;DHT22;65929;49.062;10.338;2023-02-28T05:08:53;-4.40;82.60
76996;DHT22;65929;49.062;10.338;2023-02-28T05:09:54;-4.40;82.50
76996;DHT22;65929;49.062;10.338;2023-02-28T05:10:55;-4.40;82.40
76996;DHT22;65929;49.062;10.338;2023-02-28T05:11:56;-4.30;82.40
76996;DHT22;65929;49.062;10.338;2023-02-28T05:12:57;-4.30;82.40
76996;DHT22;65929;49.062;10.338;2023-02-28T05:13:58;-4.30;82.30
76996;DHT22;65929;49.062;10.338;2023-02-28T05:14:59;-4.30;82.30
76996;DHT22;65929;49.062;10.338;2023-02-28T05:16:01;-4.30;82.20
76996;DHT22;65929;49.062;10.338;2023-02-28T05:17:02;-4.30;82.20
76996;DHT22;65929;49.062;10.338;2023-02-28T05:18:03;-4.30;82.30
76996;DHT22;65929;49.062;10.338;2023-02-28T05:19:04;-4.40;82.40
76996;DHT22;65929;49.062;10.338;2023-02-28T05:20:06;-4.40;82.50
76996;DHT22;65929;49.062;10.338;2023-02-28T05:21:22;-4.40;82.60
76996;DHT22;65929;49.062;10.338;2023-02-28T05:22:24;-4.40;82.60
76996;DHT22;65929;49.062;10.338;2023-02-28T05:23:25;-4.40;82.70
76996;DHT22;65929;49.062;10.338;2023-02-28T05:24:28;-4.40;82.90
76996;DHT22;65929;49.062;10.338;2023-02-28T05:25:29;-4.40;82.80
76996;DHT22;65929;49.062;10.338;2023-02-28T05:26:31;-4.50;82.90
76996;DHT22;65929;49.062;10.338;2023-02-28T05:27:34;-4.50;82.90
76996;DHT22;65929;49.062;10.338;2023-02-28T05:28:35;-4.50;82.90
76996;DHT22;65929;49.062;10.338;2023-02-28T05:29:36;-4.50;82.90
76996;DHT22;65929;49.062;10.338;2023-02-28T05:30:42;-4.50;82.80
76996;DHT22;65929;49.062;10.338;2023-02-28T05:31:43;-4.50;83.00
76996;DHT22;65929;49.062;10.338;2023-02-28T05:32:44;-4.50;83.00
76996;DHT22;65929;49.062;10.338;2023-02-28T05:33:50;-4.50;83.00
76996;DHT22;65929;49.062;10.338;2023-02-28T05:34:51;-4.40;83.00
76996;DHT22;65929;49.062;10.338;2023-02-28T05:35:52;-4.50;82.90
76996;DHT22;65929;49.062;10.338;2023-02-28T05:36:53;-4.50;82.90
76996;DHT22;65929;49.062;10.338;2023-02-28T05:37:54;-4.50;82.90
76996;DHT22;65929;49.062;10.338;2023-02-28T05:38:55;-4.50;83.00
76996;DHT22;65929;49.062;10.338;2023-02-28T05:39:58;-4.50;82.90
76996;DHT22;65929;49.062;10.338;2023-02-28T05:40:59;-4.50;83.00
76996;DHT22;65929;49.062;10.338;2023-02-28T05:42:00;-4.50;83.10
76996;DHT22;65929;49.062;10.338;2023-02-28T05:43:01;-4.50;83.00
76996;DHT22;65929;49.062;10.338;2023-02-28T05:44:02;-4.50;83.00
76996;DHT22;65929;49.062;10.338;2023-02-28T05:45:03;-4.60;83.10
76996;DHT22;65929;49.062;10.338;2023-02-28T05:46:05;-4.60;83.00
76996;DHT22;65929;49.062;10.338;2023-02-28T05:47:06;-4.60;83.10
76996;DHT22;65929;49.062;10.338;2023-02-28T05:48:08;-4.60;83.30
76996;DHT22;65929;49.062;10.338;2023-02-28T05:49:09;-4.60;83.30
76996;DHT22;65929;49.062;10.338;2023-02-28T05:50:10;-4.60;83.40
76996;DHT22;65929;49.062;10.338;2023-02-28T05:51:11;-4.60;83.50
76996;DHT22;65929;49.062;10.338;2023-02-28T05:52:12;-4.60;83.50
76996;DHT22;65929;49.062;10.338;2023-02-28T05:53:13;-4.60;83.70
76996;DHT22;65929;49.062;10.338;2023-02-28T05:54:14;-4.60;83.60
76996;DHT22;65929;49.062;10.338;2023-02-28T05:55:16;-4.60;83.60
76996;DHT22;65929;49.062;10.338;2023-02-28T05:56:17;-4.60;83.60
76996;DHT22;65929;49.062;10.338;2023-02-28T05:57:18;-4.60;83.70
76996;DHT22;65929;49.062;10.338;2023-02-28T05:58:20;-4.60;83.80
76996;DHT22;65929;49.062;10.338;2023-02-28T05:59:21;-4.60;84.00
76996;DHT22;65929;49.062;10.338;2023-02-28T06:00:22;-4.60;83.80
76996;DHT22;65929;49.062;10.338;2023-02-28T06:01:30;-4.60;83.80
76996;DHT22;65929;49.062;10.338;2023-02-28T06:02:31;-4.60;83.70
76996;DHT22;65929;49.062;10.338;2023-02-28T06:03:32;-4.60;84.10
76996;DHT22;65929;49.062;10.338;2023-02-28T06:04:33;-4.60;84.20
76996;DHT22;65929;49.062;10.338;2023-02-28T06:05:34;-4.60;84.00
76996;DHT22;65929;49.062;10.338;2023-02-28T06:06:35;-4.60;84.00
76996;DHT22;65929;49.062;10.338;2023-02-28T06:07:37;-4.60;84.00
76996;DHT22;65929;49.062;10.338;2023-02-28T06:08:38;-4.60;83.90
76996;DHT22;65929;49.062;10.338;2023-02-28T06:09:39;-4.60;83.90
76996;DHT22;65929;49.062;10.338;2023-02-28T06:10:42;-4.60;83.90
76996;DHT22;65929;49.062;10.338;2023-02-28T06:11:43;-4.60;84.00
76996;DHT22;65929;49.062;10.338;2023-02-28T06:12:44;-4.60;83.90
76996;DHT22;65929;49.062;10.338;2023-02-28T06:13:45;-4.60;83.70
76996;DHT22;65929;49.062;10.338;2023-02-28T06:14:46;-4.60;83.90
76996;DHT22;65929;49.062;10.338;2023-02-28T06:15:47;-4.60;83.90
76996;DHT22;65929;49.062;10.338;2023-02-28T06:16:48;-4.60;84.00
76996;DHT22;65929;49.062;10.338;2023-02-28T06:17:49;-4.60;84.00
76996;DHT22;65929;49.062;10.338;2023-02-28T06:18:50;-4.60;84.10
76996;DHT22;65929;49.062;10.338;2023-02-28T06:19:51;-4.60;84.10
76996;DHT22;65929;49.062;10.338;2023-02-28T06:20:53;-4.60;84.10
76996;DHT22;65929;49.062;10.338;2023-02-28T06:21:55;-4.60;84.10
76996;DHT22;65929;49.062;10.338;2023-02-28T06:22:57;-4.60;84.10
76996;DHT22;65929;49.062;10.338;2023-02-28T06:24:02;-4.60;84.20
76996;DHT22;65929;49.062;10.338;2023-02-28T06:25:04;-4.60;84.00
76996;DHT22;65929;49.062;10.338;2023-02-28T06:26:06;-4.60;83.90
76996;DHT22;65929;49.062;10.338;2023-02-28T06:27:07;-4.60;83.70
76996;DHT22;65929;49.062;10.338;2023-02-28T06:28:08;-4.60;83.90
76996;DHT22;65929;49.062;10.338;2023-02-28T06:29:09;-4.60;84.00
76996;DHT22;65929;49.062;10.338;2023-02-28T06:30:11;-4.60;84.00
76996;DHT22;65929;49.062;10.338;2023-02-28T06:31:14;-4.60;83.80
76996;DHT22;65929;49.062;10.338;2023-02-28T06:32:16;-4.50;83.70
76996;DHT22;65929;49.062;10.338;2023-02-28T06:33:17;-4.50;83.70
76996;DHT22;65929;49.062;10.338;2023-02-28T06:34:17;-4.50;83.60
76996;DHT22;65929;49.062;10.338;2023-02-28T06:35:18;-4.40;83.70
76996;DHT22;65929;49.062;10.338;2023-02-28T06:36:19;-4.40;83.50
76996;DHT22;65929;49.062;10.338;2023-02-28T06:37:20;-4.40;83.50
76996;DHT22;65929;49.062;10.338;2023-02-28T06:38:21;-4.40;83.50
76996;DHT22;65929;49.062;10.338;2023-02-28T06:39:22;-4.40;83.60
76996;DHT22;65929;49.062;10.338;2023-02-28T06:40:23;-4.40;83.50